Terminal Aerodrome Forecast
Issued by NWS

Home | Current Version | Previous Version | Text Only | Print | Product List | Glossary On
Versions: 1 2 3 4 5 6 7 8 9 10 11 12 13 14 15 16 17
000
FTUS43 KABR 060529
TAFPIR
TAF
KPIR 060529Z 0606/0706 13011KT P6SM OVC045
      TEMPO 0606/0610 5SM -SHRA BR OVC025
     FM061000 13014G23KT 3SM SHRA BR BKN015 OVC025=

USA.gov is the U.S. government's official web portal to all federal, state and local government web resources and services.